createdAt,value
2022-11-08T00:02:21.352Z,64.76
2022-11-08T00:04:47.875Z,64.66
2022-11-08T00:07:33.079Z,64.76
2022-11-08T00:10:17.827Z,64.19
2022-11-08T00:13:02.671Z,64.50
2022-11-08T00:15:29.490Z,65.62
2022-11-08T00:17:56.649Z,64.37
2022-11-08T00:20:23.180Z,65.41
2022-11-08T00:22:49.607Z,64.86
2022-11-08T00:25:16.177Z,65.33
2022-11-08T00:27:42.642Z,65.58
2022-11-08T00:30:09.644Z,65.13
2022-11-08T00:32:36.108Z,66.12
2022-11-08T00:35:02.550Z,65.47
2022-11-08T00:37:29.119Z,65.44
2022-11-08T00:39:55.562Z,65.92
2022-11-08T00:42:21.993Z,65.58
2022-11-08T00:44:48.437Z,66.66
2022-11-08T00:47:14.910Z,66.26
2022-11-08T00:49:41.401Z,65.65
2022-11-08T00:52:07.835Z,66.22
2022-11-08T00:54:34.638Z,65.59
2022-11-08T00:57:01.137Z,65.81
2022-11-08T00:59:27.605Z,65.91
2022-11-08T01:01:54.198Z,66.46
2022-11-08T01:04:20.870Z,66.14
2022-11-08T01:06:47.816Z,66.24
2022-11-08T01:09:14.292Z,66.24
2022-11-08T01:11:45.240Z,66.36
2022-11-08T01:14:12.636Z,67.51
2022-11-08T01:16:39.159Z,67.23
2022-11-08T01:19:05.638Z,67.45
2022-11-08T01:21:32.136Z,66.64
2022-11-08T01:23:58.599Z,66.50
2022-11-08T01:26:27.656Z,67.29
2022-11-08T01:28:54.983Z,66.91
2022-11-08T01:31:23.978Z,67.55
2022-11-08T01:33:51.978Z,67.93
2022-11-08T01:36:22.086Z,67.10
2022-11-08T01:38:48.865Z,68.91
2022-11-08T01:41:16.663Z,68.57
2022-11-08T01:43:51.715Z,67.58
2022-11-08T01:46:18.219Z,68.00
2022-11-08T01:49:00.509Z,68.34
2022-11-08T01:51:32.485Z,68.88
2022-11-08T01:54:02.402Z,69.24
2022-11-08T01:56:28.893Z,68.43
2022-11-08T01:58:58.106Z,68.01
2022-11-08T02:01:24.774Z,66.81
2022-11-08T02:03:51.511Z,67.19
2022-11-08T02:06:18.704Z,67.62
2022-11-08T02:08:45.684Z,68.38
2022-11-08T02:11:14.817Z,68.36
2022-11-08T02:13:41.495Z,68.67
2022-11-08T02:16:12.717Z,68.53
2022-11-08T02:18:39.840Z,68.18
2022-11-08T02:21:17.431Z,69.43
2022-11-08T02:23:53.416Z,69.87
2022-11-08T02:26:23.554Z,70.08
2022-11-08T02:28:50.697Z,68.27
2022-11-08T02:31:18.797Z,67.16
2022-11-08T02:33:46.688Z,67.46
2022-11-08T02:36:17.204Z,68.26
2022-11-08T02:38:47.883Z,67.54
2022-11-08T02:41:14.427Z,69.37
2022-11-08T02:43:40.882Z,68.50
2022-11-08T02:46:07.311Z,68.17
2022-11-08T02:48:33.762Z,68.49
2022-11-08T02:51:00.287Z,67.24
2022-11-08T02:53:27.052Z,67.05
2022-11-08T02:55:53.506Z,66.67
2022-11-08T02:58:20.483Z,66.07
2022-11-08T03:00:47.171Z,67.36
2022-11-08T03:03:13.945Z,67.99
2022-11-08T03:05:40.486Z,67.20
2022-11-08T03:08:07.013Z,67.34
2022-11-08T03:10:33.461Z,68.24
2022-11-08T03:13:02.234Z,67.61
2022-11-08T03:15:29.723Z,67.31
2022-11-08T03:17:57.691Z,67.61
2022-11-08T03:20:28.292Z,67.11
2022-11-08T03:22:59.536Z,67.25
2022-11-08T03:25:26.438Z,67.03
2022-11-08T03:27:52.886Z,67.21
2022-11-08T03:30:19.593Z,67.29
2022-11-08T03:32:49.841Z,67.75
2022-11-08T03:35:16.424Z,67.32
2022-11-08T03:37:52.478Z,68.47
2022-11-08T03:40:19.343Z,68.11
2022-11-08T03:42:46.322Z,67.79
2022-11-08T03:45:13.614Z,67.83
2022-11-08T03:47:42.645Z,67.56
2022-11-08T03:50:09.996Z,67.26
2022-11-08T03:52:42.557Z,67.01
2022-11-08T03:55:10.616Z,67.30
2022-11-08T03:57:39.103Z,67.13
2022-11-08T04:00:07.586Z,66.60
2022-11-08T04:02:34.051Z,67.22
2022-11-08T04:05:00.600Z,66.59
2022-11-08T04:07:28.615Z,66.97
2022-11-08T04:09:55.815Z,66.93
2022-11-08T04:12:40.936Z,66.94
2022-11-08T04:15:15.307Z,66.76
2022-11-08T04:18:11.386Z,67.16
2022-11-08T04:21:01.357Z,67.70
2022-11-08T04:23:28.665Z,67.70
2022-11-08T04:25:57.397Z,67.26
2022-11-08T04:28:29.166Z,67.07
2022-11-08T04:31:00.876Z,67.47
2022-11-08T04:33:27.409Z,67.05
2022-11-08T04:35:54.135Z,67.34
2022-11-08T04:38:21.356Z,67.49
2022-11-08T04:40:47.903Z,67.96
2022-11-08T04:43:14.637Z,68.33
2022-11-08T04:45:41.165Z,68.08
2022-11-08T04:48:07.695Z,68.31
2022-11-08T04:50:34.191Z,67.72
2022-11-08T04:53:01.243Z,69.56
2022-11-08T04:55:27.782Z,68.87
2022-11-08T04:57:57.843Z,69.07
2022-11-08T05:00:24.421Z,68.88
2022-11-08T05:02:50.910Z,69.04
2022-11-08T05:05:17.350Z,69.13
2022-11-08T05:07:44.473Z,69.71
2022-11-08T05:10:10.925Z,69.26
2022-11-08T05:12:37.483Z,70.26
2022-11-08T05:15:04.220Z,70.14
2022-11-08T05:17:30.658Z,70.11
2022-11-08T05:20:15.664Z,69.65
2022-11-08T05:23:00.436Z,69.52
2022-11-08T05:25:26.872Z,69.72
2022-11-08T05:27:53.324Z,70.33
2022-11-08T05:30:19.811Z,70.31
2022-11-08T05:32:46.226Z,69.64
2022-11-08T05:35:12.669Z,70.11
2022-11-08T05:37:41.926Z,70.31
2022-11-08T05:40:09.176Z,70.35
2022-11-08T05:42:35.584Z,70.29
2022-11-08T05:45:06.567Z,69.68
2022-11-08T05:47:35.694Z,69.76
2022-11-08T05:50:02.143Z,70.12
2022-11-08T05:52:28.554Z,69.87
2022-11-08T05:54:55.030Z,69.62
2022-11-08T05:57:22.366Z,69.80
2022-11-08T05:59:48.744Z,69.94
2022-11-08T06:02:17.115Z,69.62
2022-11-08T06:04:44.028Z,70.67
2022-11-08T06:07:10.446Z,70.52
2022-11-08T06:09:36.891Z,70.68
2022-11-08T06:12:03.513Z,70.37
2022-11-08T06:14:29.973Z,69.79
2022-11-08T06:16:56.406Z,69.98
2022-11-08T06:19:22.815Z,70.15
2022-11-08T06:21:49.335Z,69.63
2022-11-08T06:24:17.427Z,70.11
2022-11-08T06:26:44.664Z,69.69
2022-11-08T06:29:11.218Z,69.99
2022-11-08T06:31:42.710Z,70.32
2022-11-08T06:34:10.004Z,69.85
2022-11-08T06:36:36.502Z,69.80
2022-11-08T06:39:03.017Z,70.15
2022-11-08T06:41:29.955Z,70.95
2022-11-08T06:43:56.463Z,72.13
2022-11-08T06:46:23.311Z,71.71
2022-11-08T06:48:49.857Z,71.14
2022-11-08T06:51:16.770Z,71.46
2022-11-08T06:53:43.727Z,71.01
2022-11-08T06:56:10.633Z,70.72
2022-11-08T06:58:37.799Z,70.81
2022-11-08T07:01:08.866Z,70.71
2022-11-08T07:03:36.019Z,71.04
2022-11-08T07:06:06.949Z,72.99
2022-11-08T07:08:35.068Z,72.45
2022-11-08T07:11:02.680Z,72.44
2022-11-08T07:13:29.868Z,70.78
2022-11-08T07:16:00.192Z,73.41
2022-11-08T07:18:27.036Z,72.79
2022-11-08T07:20:53.842Z,70.33
2022-11-08T07:23:20.552Z,71.08
2022-11-08T07:25:47.116Z,70.28
2022-11-08T07:28:17.610Z,70.29
2022-11-08T07:30:45.729Z,71.05
2022-11-08T07:33:12.662Z,71.55
2022-11-08T07:35:39.564Z,70.75
2022-11-08T07:38:06.377Z,70.09
2022-11-08T07:40:34.549Z,68.41
2022-11-08T07:43:16.747Z,67.20
2022-11-08T07:45:43.663Z,65.73
2022-11-08T07:48:13.227Z,60.30
2022-11-08T07:50:41.719Z,55.08
2022-11-08T07:53:08.614Z,51.50
2022-11-08T07:55:39.781Z,52.30
2022-11-08T07:58:07.551Z,50.50
2022-11-08T08:00:38.782Z,48.99
2022-11-08T08:03:08.237Z,47.11
2022-11-08T08:05:38.611Z,46.95
2022-11-08T08:08:05.546Z,51.74
2022-11-08T08:10:33.184Z,49.53
2022-11-08T08:13:00.362Z,50.45
2022-11-08T08:15:27.112Z,48.95
2022-11-08T08:17:53.846Z,49.09
2022-11-08T08:20:20.448Z,51.75
2022-11-08T08:22:48.795Z,51.86
2022-11-08T08:25:16.526Z,52.50
2022-11-08T08:27:53.410Z,52.87
2022-11-08T08:30:21.020Z,53.36
2022-11-08T08:33:02.158Z,54.22
2022-11-08T08:35:36.294Z,55.93
2022-11-08T08:38:03.977Z,55.10
2022-11-08T08:40:30.970Z,55.03
2022-11-08T08:43:01.274Z,56.53
2022-11-08T08:45:27.858Z,56.49
2022-11-08T08:47:55.938Z,56.13
2022-11-08T08:50:23.462Z,53.23
2022-11-08T08:52:49.988Z,49.96
2022-11-08T08:55:17.043Z,48.54
2022-11-08T08:57:47.920Z,46.67
2022-11-08T09:03:04.503Z,44.77
2022-11-08T09:05:32.148Z,43.25
2022-11-08T09:07:58.588Z,46.02
2022-11-08T09:10:25.551Z,44.70
2022-11-08T09:12:52.347Z,46.19
2022-11-08T09:15:19.706Z,48.63
2022-11-08T09:17:46.144Z,47.51
2022-11-08T09:20:14.380Z,46.90
2022-11-08T09:22:40.841Z,47.95
2022-11-08T09:25:07.489Z,47.68
2022-11-08T09:27:33.885Z,49.56
2022-11-08T09:30:00.313Z,50.91
2022-11-08T09:32:54.098Z,50.47
2022-11-08T09:35:16.455Z,51.68
2022-11-08T09:37:45.619Z,53.38
2022-11-08T09:40:40.792Z,53.85
2022-11-08T09:43:22.210Z,54.95
2022-11-08T09:45:50.657Z,54.04
2022-11-08T09:48:40.565Z,53.72
2022-11-08T09:51:13.766Z,56.11
2022-11-08T09:53:52.165Z,58.70
2022-11-08T09:56:23.357Z,58.91
2022-11-08T09:59:36.823Z,58.22
2022-11-08T10:02:14.167Z,60.57
2022-11-08T10:04:40.663Z,60.21
2022-11-08T10:07:23.961Z,60.19
2022-11-08T10:10:27.598Z,59.19
2022-11-08T10:13:27.513Z,59.19
2022-11-08T10:16:10.519Z,59.28
2022-11-08T10:18:42.640Z,58.51
2022-11-08T10:21:57.348Z,57.54
2022-11-08T10:24:26.526Z,57.28
2022-11-08T10:26:57.290Z,58.00
2022-11-08T10:29:39.910Z,57.84
2022-11-08T10:32:20.537Z,56.84
2022-11-08T10:35:13.147Z,54.38
2022-11-08T10:37:43.244Z,54.76
2022-11-08T10:40:24.854Z,54.26
2022-11-08T10:43:14.611Z,55.18
2022-11-08T10:45:41.293Z,54.61
2022-11-08T10:48:11.815Z,53.94
2022-11-08T10:51:04.646Z,51.39
2022-11-08T10:53:32.417Z,50.95
2022-11-08T10:56:01.694Z,50.10
2022-11-08T10:58:39.963Z,49.70
2022-11-08T11:01:15.189Z,49.41
2022-11-08T11:03:42.354Z,48.57
2022-11-08T11:06:30.895Z,48.61
2022-11-08T11:09:00.521Z,49.03
2022-11-08T11:11:32.904Z,48.26
2022-11-08T11:14:22.752Z,48.03
2022-11-08T11:16:56.629Z,48.38
2022-11-08T11:19:25.497Z,48.03
2022-11-08T11:21:56.278Z,47.52
2022-11-08T11:24:23.458Z,46.99
2022-11-08T11:27:19.465Z,47.56
2022-11-08T11:29:45.929Z,47.66
2022-11-08T11:32:23.374Z,48.46
2022-11-08T11:34:58.353Z,47.58
2022-11-08T11:37:45.292Z,47.89
2022-11-08T11:40:35.140Z,45.54
2022-11-08T11:43:45.866Z,43.57
2022-11-08T11:46:22.682Z,42.41
2022-11-08T11:51:30.202Z,43.64
2022-11-08T11:53:58.164Z,42.79
2022-11-08T11:56:30.895Z,41.87
2022-11-08T11:59:19.062Z,42.17
2022-11-08T12:01:54.724Z,41.87
2022-11-08T12:04:36.480Z,42.37
2022-11-08T12:07:11.859Z,41.79
2022-11-08T12:10:16.272Z,42.93
2022-11-08T12:12:56.944Z,43.21
2022-11-08T12:15:57.497Z,42.15
2022-11-08T12:18:42.821Z,41.73
2022-11-08T12:21:25.201Z,43.73
2022-11-08T12:24:04.775Z,41.71
2022-11-08T12:26:53.537Z,41.71
2022-11-08T12:29:27.139Z,42.00
2022-11-08T12:32:14.492Z,42.84
2022-11-08T12:34:57.482Z,41.65
2022-11-08T12:37:26.775Z,41.46
2022-11-08T12:40:07.177Z,42.97
2022-11-08T12:42:55.316Z,41.08
2022-11-08T12:45:29.430Z,42.22
2022-11-08T12:47:58.705Z,42.56
2022-11-08T12:51:12.776Z,41.20
2022-11-08T12:53:57.477Z,42.32
2022-11-08T12:56:42.986Z,41.72
2022-11-08T12:59:38.553Z,42.87
2022-11-08T13:02:17.528Z,41.49
2022-11-08T13:04:56.866Z,41.34
2022-11-08T13:07:48.363Z,42.30
2022-11-08T13:10:47.682Z,40.45
2022-11-08T13:13:24.848Z,40.64
2022-11-08T13:16:10.179Z,41.45
2022-11-08T13:18:44.294Z,40.28
2022-11-08T13:21:25.838Z,39.58
2022-11-08T13:23:53.934Z,39.46
2022-11-08T13:26:21.616Z,39.80
2022-11-08T13:28:48.968Z,40.95
2022-11-08T13:31:41.743Z,39.50
2022-11-08T13:34:11.178Z,39.75
2022-11-08T13:36:49.526Z,39.24
2022-11-08T13:39:24.100Z,39.44
2022-11-08T13:42:00.739Z,40.32
2022-11-08T13:44:55.095Z,39.36
2022-11-08T13:47:33.753Z,38.70
2022-11-08T13:50:34.357Z,39.23
2022-11-08T13:53:03.864Z,40.16
2022-11-08T13:55:42.772Z,40.93
2022-11-08T13:58:33.954Z,41.01
2022-11-08T14:01:03.597Z,40.19
2022-11-08T14:03:33.247Z,40.08
2022-11-08T14:06:13.515Z,39.61
2022-11-08T14:09:01.119Z,40.64
2022-11-08T14:11:33.744Z,40.30
2022-11-08T14:14:12.381Z,40.55
2022-11-08T14:16:55.216Z,40.83
2022-11-08T14:19:25.233Z,41.81
2022-11-08T14:21:56.201Z,40.78
2022-11-08T14:24:35.864Z,41.11
2022-11-08T14:27:03.012Z,40.43
2022-11-08T14:29:29.654Z,41.63
2022-11-08T14:32:25.430Z,41.20
2022-11-08T14:34:51.859Z,41.58
2022-11-08T14:37:28.138Z,41.80
2022-11-08T14:39:54.693Z,41.40
2022-11-08T14:42:24.567Z,41.45
2022-11-08T14:44:56.713Z,41.32
2022-11-08T14:47:30.192Z,41.40
2022-11-08T14:49:58.243Z,42.11
2022-11-08T14:52:30.084Z,41.97
2022-11-08T14:54:59.568Z,41.20
2022-11-08T14:57:35.483Z,41.25
2022-11-08T15:00:07.174Z,41.76
2022-11-08T15:02:33.890Z,41.92
2022-11-08T15:05:00.409Z,42.03
2022-11-08T15:07:27.054Z,41.52
2022-11-08T15:09:54.227Z,41.64
2022-11-08T15:12:24.258Z,41.84
2022-11-08T15:14:52.286Z,41.87
2022-11-08T15:17:39.256Z,42.53
2022-11-08T15:20:13.000Z,42.08
2022-11-08T15:22:40.099Z,42.45
2022-11-08T15:25:25.385Z,42.21
2022-11-08T15:27:54.618Z,41.49
2022-11-08T15:30:22.965Z,41.60
2022-11-08T15:32:50.555Z,41.61
2022-11-08T15:35:46.827Z,42.35
2022-11-08T15:38:32.136Z,42.40
2022-11-08T15:41:01.118Z,42.26
2022-11-08T15:43:30.632Z,43.17
2022-11-08T15:45:58.920Z,42.32
2022-11-08T15:48:29.338Z,42.40
2022-11-08T15:50:56.860Z,42.11
2022-11-08T15:53:25.623Z,42.10
2022-11-08T15:56:02.157Z,42.36
2022-11-08T15:58:31.499Z,42.15
2022-11-08T16:01:00.313Z,42.48
2022-11-08T16:03:27.249Z,41.99
2022-11-08T16:05:53.841Z,41.98
2022-11-08T16:08:21.161Z,42.03
2022-11-08T16:11:13.872Z,42.00
2022-11-08T16:13:40.562Z,41.96
2022-11-08T16:16:12.674Z,42.14
2022-11-08T16:18:39.894Z,42.91
2022-11-08T16:21:06.895Z,42.50
2022-11-08T16:23:33.457Z,41.89
2022-11-08T16:26:03.418Z,42.61
2022-11-08T16:28:35.332Z,42.93
2022-11-08T16:31:03.522Z,43.33
2022-11-08T16:33:31.338Z,43.36
2022-11-08T16:36:01.155Z,42.66
2022-11-08T16:38:36.716Z,42.99
2022-11-08T16:41:04.662Z,42.73
2022-11-08T16:43:31.948Z,43.98
2022-11-08T16:46:05.653Z,42.89
2022-11-08T16:48:33.907Z,43.43
2022-11-08T16:53:43.386Z,43.37
2022-11-08T16:56:38.742Z,44.74
2022-11-08T16:59:05.177Z,44.51
2022-11-08T17:01:33.599Z,44.06
2022-11-08T17:04:00.061Z,44.44
2022-11-08T17:06:26.658Z,43.54
2022-11-08T17:08:53.146Z,43.53
2022-11-08T17:11:48.563Z,43.14
2022-11-08T17:14:31.810Z,43.60
2022-11-08T17:17:07.155Z,45.04
2022-11-08T17:19:33.579Z,43.65
2022-11-08T17:22:00.043Z,42.83
2022-11-08T17:24:28.403Z,43.20
2022-11-08T17:26:54.818Z,43.55
2022-11-08T17:29:21.239Z,42.80
2022-11-08T17:31:48.040Z,43.85
2022-11-08T17:34:14.594Z,43.19
2022-11-08T17:36:41.520Z,43.33
2022-11-08T17:39:08.204Z,43.26
2022-11-08T17:41:34.681Z,43.30
2022-11-08T17:44:01.105Z,43.97
2022-11-08T17:46:27.602Z,43.93
2022-11-08T17:48:56.818Z,43.64
2022-11-08T17:51:23.273Z,44.47
2022-11-08T17:53:49.975Z,44.57
2022-11-08T17:56:16.411Z,44.41
2022-11-08T17:58:42.963Z,44.36
2022-11-08T18:01:09.605Z,44.13
2022-11-08T18:03:36.324Z,45.54
2022-11-08T18:06:09.705Z,44.61
2022-11-08T18:08:36.292Z,45.50
2022-11-08T18:11:03.894Z,44.66
2022-11-08T18:13:30.864Z,44.77
2022-11-08T18:16:11.913Z,45.77
2022-11-08T18:18:38.982Z,45.35
2022-11-08T18:21:06.914Z,45.30
2022-11-08T18:23:33.594Z,45.27
2022-11-08T18:26:00.529Z,45.21
2022-11-08T18:28:27.551Z,45.63
2022-11-08T18:30:54.015Z,45.70
2022-11-08T18:33:21.321Z,45.92
2022-11-08T18:35:48.158Z,45.52
2022-11-08T18:38:14.863Z,45.11
2022-11-08T18:40:44.910Z,45.77
2022-11-08T18:43:11.397Z,45.50
2022-11-08T18:45:38.104Z,45.43
2022-11-08T18:48:04.692Z,46.13
2022-11-08T18:50:31.152Z,45.61
2022-11-08T18:53:03.070Z,45.68
2022-11-08T18:55:31.331Z,45.78
2022-11-08T18:57:57.804Z,45.70
2022-11-08T19:00:24.334Z,45.26
2022-11-08T19:02:50.865Z,45.57
2022-11-08T19:05:17.402Z,45.49
2022-11-08T19:07:43.877Z,45.44
2022-11-08T19:10:10.552Z,45.32
2022-11-08T19:12:37.088Z,45.54
2022-11-08T19:15:03.890Z,45.77
2022-11-08T19:17:31.842Z,45.65
2022-11-08T19:19:58.276Z,45.69
2022-11-08T19:22:24.705Z,46.03
2022-11-08T19:24:51.096Z,45.22
2022-11-08T19:27:17.596Z,45.89
2022-11-08T19:29:44.047Z,45.59
2022-11-08T19:32:10.470Z,45.52
2022-11-08T19:34:37.001Z,46.33
2022-11-08T19:37:03.747Z,45.54
2022-11-08T19:39:30.333Z,46.45
2022-11-08T19:41:56.728Z,45.71
2022-11-08T19:44:23.179Z,46.23
2022-11-08T19:46:49.622Z,46.30
2022-11-08T19:49:16.078Z,45.77
2022-11-08T19:51:42.509Z,45.98
2022-11-08T19:54:12.736Z,46.82
2022-11-08T19:59:25.651Z,46.85
2022-11-08T20:01:52.198Z,46.18
2022-11-08T20:04:19.284Z,47.15
2022-11-08T20:06:46.423Z,46.38
2022-11-08T20:09:13.224Z,46.74
2022-11-08T20:11:41.309Z,46.57
2022-11-08T20:14:10.585Z,45.80
2022-11-08T20:16:40.871Z,45.61
2022-11-08T20:19:12.781Z,46.24
2022-11-08T20:21:45.620Z,46.36
2022-11-08T20:24:12.805Z,46.18
2022-11-08T20:26:41.297Z,46.83
2022-11-08T20:29:08.400Z,46.47
2022-11-08T20:31:35.308Z,46.95
2022-11-08T20:34:05.574Z,45.94
2022-11-08T20:36:35.382Z,46.80
2022-11-08T20:39:06.881Z,47.07
2022-11-08T20:41:35.657Z,46.70
2022-11-08T20:44:02.782Z,47.06
2022-11-08T20:46:29.581Z,46.54
2022-11-08T20:49:00.210Z,46.11
2022-11-08T20:51:28.250Z,46.48
2022-11-08T20:53:56.015Z,47.19
2022-11-08T20:56:23.540Z,47.89
2022-11-08T20:58:51.333Z,46.57
2022-11-08T21:01:23.105Z,46.68
2022-11-08T21:03:51.171Z,47.48
2022-11-08T21:06:20.249Z,46.55
2022-11-08T21:09:10.911Z,46.55
2022-11-08T21:11:36.995Z,47.01
2022-11-08T21:14:04.715Z,46.53
2022-11-08T21:16:38.591Z,46.47
2022-11-08T21:19:13.792Z,46.42
2022-11-08T21:21:40.507Z,46.45
2022-11-08T21:24:07.514Z,46.07
2022-11-08T21:26:36.963Z,45.86
2022-11-08T21:29:04.545Z,46.26
2022-11-08T21:31:31.486Z,45.81
2022-11-08T21:33:58.207Z,46.09
2022-11-08T21:36:26.804Z,45.89
2022-11-08T21:38:54.111Z,46.10
2022-11-08T21:41:20.990Z,46.96
2022-11-08T21:43:47.640Z,46.18
2022-11-08T21:46:25.202Z,46.58
2022-11-08T21:48:59.409Z,46.16
2022-11-08T21:51:26.780Z,46.13
2022-11-08T21:53:55.538Z,45.95
2022-11-08T21:56:24.272Z,46.98
2022-11-08T21:58:50.958Z,45.99
2022-11-08T22:01:17.728Z,46.76
2022-11-08T22:03:44.468Z,46.13
2022-11-08T22:06:10.936Z,46.17
2022-11-08T22:08:37.362Z,47.15
2022-11-08T22:11:04.208Z,46.23
2022-11-08T22:13:30.629Z,46.66
2022-11-08T22:15:57.181Z,46.64
2022-11-08T22:18:36.709Z,46.43
2022-11-08T22:21:27.987Z,46.11
2022-11-08T22:23:54.463Z,45.72
2022-11-08T22:26:20.901Z,46.96
2022-11-08T22:28:47.313Z,46.58
2022-11-08T22:31:13.816Z,46.46
2022-11-08T22:33:40.256Z,47.04
2022-11-08T22:36:06.955Z,47.05
2022-11-08T22:38:33.509Z,46.14
2022-11-08T22:40:59.929Z,46.60
2022-11-08T22:43:26.384Z,47.25
2022-11-08T22:45:52.803Z,47.62
2022-11-08T22:48:19.520Z,47.37
2022-11-08T22:50:46.092Z,46.37
2022-11-08T22:53:12.497Z,46.77
2022-11-08T22:55:38.945Z,46.91
2022-11-08T22:58:05.450Z,47.33
2022-11-08T23:00:31.854Z,47.29
2022-11-08T23:02:58.252Z,47.68
2022-11-08T23:05:24.679Z,47.50
2022-11-08T23:07:51.138Z,47.71
2022-11-08T23:10:17.741Z,47.32
2022-11-08T23:13:02.732Z,47.48
2022-11-08T23:15:51.078Z,47.79
2022-11-08T23:18:17.535Z,47.39
2022-11-08T23:21:02.576Z,47.55
2022-11-08T23:23:47.852Z,48.07
2022-11-08T23:26:14.381Z,47.90
2022-11-08T23:28:59.386Z,47.77
2022-11-08T23:31:37.759Z,47.43
2022-11-08T23:34:04.963Z,47.80
2022-11-08T23:36:31.420Z,48.60
2022-11-08T23:38:58.500Z,48.27
2022-11-08T23:41:43.356Z,48.14
2022-11-08T23:44:25.206Z,47.52
2022-11-08T23:46:56.770Z,47.75
2022-11-08T23:49:23.651Z,47.91
2022-11-08T23:52:08.326Z,47.83
2022-11-08T23:54:37.691Z,48.55
2022-11-08T23:57:09.995Z,48.67
2022-11-08T23:59:39.238Z,47.75
